createdAt,value
2019-03-21T00:00:32.514Z,84.25
2019-03-21T00:01:32.503Z,84.46
2019-03-21T00:02:32.509Z,84.36
2019-03-21T00:03:32.485Z,84.56
2019-03-21T00:04:32.495Z,84.61
2019-03-21T00:05:32.464Z,85.02
2019-03-21T00:06:32.446Z,85.02
2019-03-21T00:07:33.001Z,85.13
2019-03-21T00:08:32.435Z,84.71
2019-03-21T00:09:32.413Z,85.13
2019-03-21T00:10:32.426Z,85.34
2019-03-21T00:11:32.390Z,86.18
2019-03-21T00:12:32.386Z,86.04
2019-03-21T00:13:32.397Z,85.61
2019-03-21T00:14:32.352Z,85.93
2019-03-21T00:15:32.346Z,86.35
2019-03-21T00:16:32.340Z,85.51
2019-03-21T00:17:32.321Z,85.82
2019-03-21T00:18:32.312Z,85.93
2019-03-21T00:19:32.321Z,86.24
2019-03-21T00:20:32.291Z,86.10
2019-03-21T00:21:32.300Z,85.47
2019-03-21T00:22:32.265Z,86.10
2019-03-21T00:23:32.256Z,85.68
2019-03-21T00:24:32.244Z,85.89
2019-03-21T00:25:32.245Z,85.58
2019-03-21T00:26:32.221Z,85.89
2019-03-21T00:27:32.241Z,85.78
2019-03-21T00:28:32.197Z,85.89
2019-03-21T00:29:32.186Z,85.89
2019-03-21T00:30:32.179Z,86.10
2019-03-21T00:31:32.186Z,85.58
2019-03-21T00:32:32.145Z,86.10
2019-03-21T00:33:32.176Z,85.16
2019-03-21T00:34:32.126Z,85.99
2019-03-21T00:35:32.119Z,85.58
2019-03-21T00:36:32.111Z,86.31
2019-03-21T00:37:32.109Z,85.43
2019-03-21T00:38:32.098Z,85.99
2019-03-21T00:39:32.976Z,85.05
2019-03-21T00:40:32.062Z,85.74
2019-03-21T00:41:32.054Z,85.74
2019-03-21T00:42:32.040Z,86.10
2019-03-21T00:43:32.060Z,85.12
2019-03-21T00:44:32.020Z,84.80
2019-03-21T00:45:32.039Z,84.91
2019-03-21T00:46:31.995Z,84.91
2019-03-21T00:47:31.992Z,84.17
2019-03-21T00:48:31.965Z,84.28
2019-03-21T00:49:31.982Z,83.76
2019-03-21T00:50:31.947Z,83.13
2019-03-21T00:51:31.976Z,83.23
2019-03-21T00:52:31.957Z,83.23
2019-03-21T00:53:31.913Z,83.65
2019-03-21T00:54:31.910Z,83.09
2019-03-21T00:55:31.917Z,83.20
2019-03-21T00:56:31.886Z,83.83
2019-03-21T00:57:31.900Z,83.86
2019-03-21T00:58:31.857Z,83.83
2019-03-21T00:59:31.842Z,83.09
2019-03-21T01:00:31.837Z,82.78
2019-03-21T01:01:31.850Z,82.99
2019-03-21T01:02:31.813Z,83.20
2019-03-21T01:03:31.833Z,84.03
2019-03-21T01:04:31.796Z,84.41
2019-03-21T01:05:31.784Z,84.41
2019-03-21T01:06:31.772Z,84.41
2019-03-21T01:07:31.791Z,85.67
2019-03-21T01:08:31.751Z,85.88
2019-03-21T01:09:31.785Z,84.94
2019-03-21T01:10:31.728Z,84.94
2019-03-21T01:11:31.714Z,85.14
2019-03-21T01:12:31.704Z,84.41
2019-03-21T01:13:31.720Z,84.31
2019-03-21T01:14:31.685Z,83.78
2019-03-21T01:15:31.688Z,84.52
2019-03-21T01:16:31.663Z,84.31
2019-03-21T01:17:31.652Z,84.24
2019-03-21T01:18:31.642Z,84.41
2019-03-21T01:19:33.371Z,84.31
2019-03-21T01:20:31.615Z,84.31
2019-03-21T01:21:31.615Z,84.83
2019-03-21T01:22:31.640Z,84.94
2019-03-21T01:23:31.590Z,85.98
2019-03-21T01:24:31.573Z,85.63
2019-03-21T01:25:31.575Z,85.14
2019-03-21T01:26:31.580Z,85.94
2019-03-21T01:27:31.544Z,85.73
2019-03-21T01:28:31.522Z,85.73
2019-03-21T01:29:31.518Z,85.98
2019-03-21T01:30:31.497Z,85.77
2019-03-21T01:31:31.513Z,85.11
2019-03-21T01:32:31.508Z,84.58
2019-03-21T01:33:31.472Z,84.41
2019-03-21T01:34:31.457Z,84.73
2019-03-21T01:35:31.448Z,84.83
2019-03-21T01:36:31.429Z,84.94
2019-03-21T01:37:31.447Z,84.20
2019-03-21T01:38:31.545Z,84.83
2019-03-21T01:39:31.404Z,84.94
2019-03-21T01:40:31.394Z,84.20
2019-03-21T01:41:31.380Z,84.00
2019-03-21T01:42:31.371Z,84.31
2019-03-21T01:43:31.378Z,83.30
2019-03-21T01:44:40.544Z,82.64
2019-03-21T01:45:32.334Z,82.05
2019-03-21T01:46:31.325Z,82.01
2019-03-21T01:47:31.317Z,82.57
2019-03-21T01:48:31.299Z,81.84
2019-03-21T01:49:31.308Z,82.26
2019-03-21T01:50:31.312Z,82.67
2019-03-21T01:51:31.264Z,82.57
2019-03-21T01:52:31.253Z,82.78
2019-03-21T01:53:31.242Z,82.78
2019-03-21T01:54:31.227Z,82.67
2019-03-21T01:55:31.247Z,82.78
2019-03-21T01:56:31.230Z,82.46
2019-03-21T01:57:31.197Z,82.46
2019-03-21T01:58:31.186Z,82.67
2019-03-21T01:59:31.174Z,82.71
2019-03-21T02:00:31.166Z,83.13
2019-03-21T02:01:31.178Z,82.78
2019-03-21T02:02:31.205Z,83.30
2019-03-21T02:03:31.139Z,83.13
2019-03-21T02:04:31.119Z,83.09
2019-03-21T02:05:31.107Z,83.13
2019-03-21T02:06:31.100Z,83.44
2019-03-21T02:07:31.123Z,83.44
2019-03-21T02:08:31.102Z,83.76
2019-03-21T02:09:31.067Z,84.07
2019-03-21T02:10:31.061Z,83.86
2019-03-21T02:11:31.048Z,83.44
2019-03-21T02:12:31.035Z,83.34
2019-03-21T02:13:31.039Z,83.55
2019-03-21T02:14:31.036Z,83.44
2019-03-21T02:15:30.997Z,83.86
2019-03-21T02:16:30.986Z,84.00
2019-03-21T02:17:31.493Z,83.76
2019-03-21T02:18:30.967Z,84.00
2019-03-21T02:19:30.995Z,83.90
2019-03-21T02:20:30.999Z,84.22
2019-03-21T02:21:30.942Z,83.90
2019-03-21T02:22:30.920Z,83.90
2019-03-21T02:23:30.911Z,84.00
2019-03-21T02:24:30.902Z,83.90
2019-03-21T02:25:30.910Z,83.94
2019-03-21T02:26:30.918Z,84.36
2019-03-21T02:27:30.873Z,84.05
2019-03-21T02:28:30.860Z,84.11
2019-03-21T02:29:30.842Z,84.15
2019-03-21T02:30:30.830Z,83.52
2019-03-21T02:31:30.835Z,84.25
2019-03-21T02:32:30.823Z,84.46
2019-03-21T02:33:30.801Z,84.36
2019-03-21T02:34:30.789Z,84.15
2019-03-21T02:35:31.083Z,84.36
2019-03-21T02:36:30.760Z,84.05
2019-03-21T02:37:30.837Z,84.36
2019-03-21T02:38:30.747Z,84.15
2019-03-21T02:39:30.729Z,84.36
2019-03-21T02:40:30.731Z,84.56
2019-03-21T02:41:30.706Z,84.36
2019-03-21T02:42:30.697Z,84.36
2019-03-21T02:43:31.484Z,84.46
2019-03-21T02:44:30.676Z,83.66
2019-03-21T02:45:30.663Z,83.87
2019-03-21T02:46:30.650Z,83.56
2019-03-21T02:47:30.648Z,83.66
2019-03-21T02:48:30.637Z,83.98
2019-03-21T02:49:30.673Z,84.29
2019-03-21T02:50:30.614Z,84.19
2019-03-21T02:51:30.596Z,83.87
2019-03-21T02:52:30.581Z,84.08
2019-03-21T02:53:30.582Z,84.39
2019-03-21T02:54:30.564Z,84.19
2019-03-21T02:55:30.626Z,84.71
2019-03-21T02:56:30.540Z,84.61
2019-03-21T02:57:30.524Z,85.34
2019-03-21T02:58:30.518Z,85.38
2019-03-21T02:59:30.508Z,84.85
2019-03-21T03:00:30.507Z,84.92
2019-03-21T03:01:30.531Z,85.06
2019-03-21T03:02:30.468Z,84.75
2019-03-21T03:03:30.463Z,84.85
2019-03-21T03:04:30.536Z,84.64
2019-03-21T03:05:30.445Z,84.85
2019-03-21T03:06:30.429Z,84.64
2019-03-21T03:07:30.456Z,84.75
2019-03-21T03:08:30.414Z,84.75
2019-03-21T03:09:30.396Z,85.17
2019-03-21T03:10:30.384Z,85.27
2019-03-21T03:11:30.368Z,84.44
2019-03-21T03:12:30.359Z,84.58
2019-03-21T03:13:30.420Z,84.01
2019-03-21T03:14:30.340Z,84.27
2019-03-21T03:15:30.326Z,84.44
2019-03-21T03:16:30.312Z,84.68
2019-03-21T03:17:30.307Z,84.47
2019-03-21T03:18:30.287Z,84.47
2019-03-21T03:19:30.325Z,84.96
2019-03-21T03:20:30.272Z,85.10
2019-03-21T03:21:30.262Z,85.10
2019-03-21T03:22:30.256Z,85.27
2019-03-21T03:23:30.235Z,85.42
2019-03-21T03:24:30.230Z,85.21
2019-03-21T03:25:30.262Z,85.52
2019-03-21T03:26:30.209Z,85.06
2019-03-21T03:27:30.194Z,84.79
2019-03-21T03:28:30.183Z,84.79
2019-03-21T03:29:30.168Z,84.79
2019-03-21T03:30:30.167Z,85.21
2019-03-21T03:31:30.205Z,85.31
2019-03-21T03:32:30.148Z,84.79
2019-03-21T03:33:30.123Z,84.89
2019-03-21T03:34:30.112Z,85.21
2019-03-21T03:35:30.106Z,84.47
2019-03-21T03:36:30.096Z,84.47
2019-03-21T03:37:30.121Z,84.47
2019-03-21T03:38:30.081Z,84.51
2019-03-21T03:39:30.059Z,84.68
2019-03-21T03:40:30.049Z,84.72
2019-03-21T03:41:30.036Z,85.35
2019-03-21T03:42:30.057Z,85.14
2019-03-21T03:43:30.020Z,84.93
2019-03-21T03:44:30.008Z,85.00
2019-03-21T03:45:37.340Z,84.47
2019-03-21T03:46:30.981Z,85.46
2019-03-21T03:47:29.967Z,85.63
2019-03-21T03:48:29.997Z,86.08
2019-03-21T03:49:29.993Z,84.93
2019-03-21T03:50:29.936Z,85.56
2019-03-21T03:51:29.931Z,85.46
2019-03-21T03:52:29.918Z,85.63
2019-03-21T03:53:29.905Z,85.52
2019-03-21T03:54:29.913Z,85.21
2019-03-21T03:55:29.896Z,85.56
2019-03-21T03:56:29.868Z,84.30
2019-03-21T03:57:29.856Z,84.72
2019-03-21T03:58:29.847Z,84.37
2019-03-21T03:59:29.842Z,85.03
2019-03-21T04:00:29.868Z,85.03
2019-03-21T04:01:39.358Z,84.83
2019-03-21T04:02:29.841Z,85.46
2019-03-21T04:03:29.816Z,85.25
2019-03-21T04:04:29.797Z,85.88
2019-03-21T04:05:29.805Z,85.88
2019-03-21T04:06:29.807Z,85.98
2019-03-21T04:07:29.774Z,85.98
2019-03-21T04:08:29.764Z,86.08
2019-03-21T04:09:29.731Z,86.08
2019-03-21T04:10:29.743Z,86.19
2019-03-21T04:11:29.712Z,86.08
2019-03-21T04:12:39.219Z,86.08
2019-03-21T04:13:29.699Z,86.19
2019-03-21T04:14:29.706Z,85.66
2019-03-21T04:15:29.671Z,86.51
2019-03-21T04:16:29.671Z,85.98
2019-03-21T04:17:30.626Z,86.29
2019-03-21T04:18:29.665Z,85.88
2019-03-21T04:19:29.646Z,86.08
2019-03-21T04:20:29.664Z,86.08
2019-03-21T04:21:29.625Z,86.29
2019-03-21T04:22:29.599Z,86.08
2019-03-21T04:23:29.585Z,86.40
2019-03-21T04:24:29.626Z,86.29
2019-03-21T04:25:29.559Z,85.88
2019-03-21T04:26:29.572Z,86.19
2019-03-21T04:27:29.573Z,86.19
2019-03-21T04:28:29.519Z,85.56
2019-03-21T04:29:29.582Z,86.19
2019-03-21T04:30:29.511Z,85.88
2019-03-21T04:31:29.515Z,86.29
2019-03-21T04:32:29.481Z,86.08
2019-03-21T04:33:29.485Z,85.71
2019-03-21T04:34:29.452Z,85.98
2019-03-21T04:35:29.440Z,86.02
2019-03-21T04:36:30.055Z,85.98
2019-03-21T04:37:29.446Z,86.12
2019-03-21T04:38:29.447Z,85.98
2019-03-21T04:39:29.396Z,85.39
2019-03-21T04:40:29.436Z,85.49
2019-03-21T04:41:29.517Z,85.66
2019-03-21T04:42:29.384Z,86.23
2019-03-21T04:43:29.388Z,85.81
2019-03-21T04:44:29.352Z,85.98
2019-03-21T04:45:29.326Z,85.91
2019-03-21T04:46:29.343Z,85.91
2019-03-21T04:47:29.341Z,85.91
2019-03-21T04:48:29.325Z,86.33
2019-03-21T04:49:29.285Z,86.02
2019-03-21T04:50:29.286Z,86.33
2019-03-21T04:51:29.298Z,85.88
2019-03-21T04:52:29.299Z,86.12
2019-03-21T04:53:29.317Z,86.44
2019-03-21T04:54:29.259Z,86.33
2019-03-21T04:55:29.218Z,86.23
2019-03-21T04:56:29.209Z,86.33
2019-03-21T04:57:29.194Z,86.33
2019-03-21T04:58:29.198Z,86.33
2019-03-21T04:59:29.244Z,86.02
2019-03-21T05:00:29.191Z,86.33
2019-03-21T05:01:29.153Z,86.12
2019-03-21T05:02:29.178Z,85.81
2019-03-21T05:03:29.124Z,86.23
2019-03-21T05:04:29.157Z,86.33
2019-03-21T05:05:29.134Z,86.12
2019-03-21T05:06:29.102Z,86.33
2019-03-21T05:07:29.133Z,85.81
2019-03-21T05:08:29.116Z,85.81
2019-03-21T05:09:29.089Z,86.12
2019-03-21T05:10:29.074Z,86.33
2019-03-21T05:11:29.050Z,85.91
2019-03-21T05:12:29.037Z,86.33
2019-03-21T05:13:29.038Z,86.23
2019-03-21T05:14:29.036Z,86.08
2019-03-21T05:15:29.000Z,86.54
2019-03-21T05:16:29.028Z,85.91
2019-03-21T05:17:29.017Z,86.23
2019-03-21T05:18:29.012Z,86.61
2019-03-21T05:19:28.957Z,86.40
2019-03-21T05:20:28.931Z,86.23
2019-03-21T05:21:28.926Z,86.02
2019-03-21T05:22:28.958Z,86.23
2019-03-21T05:23:29.023Z,86.65
2019-03-21T05:24:28.896Z,86.44
2019-03-21T05:25:28.881Z,86.44
2019-03-21T05:26:28.870Z,86.61
2019-03-21T05:27:29.543Z,86.19
2019-03-21T05:28:28.885Z,86.44
2019-03-21T05:29:28.884Z,86.40
2019-03-21T05:30:28.825Z,86.61
2019-03-21T05:31:28.823Z,86.71
2019-03-21T05:32:28.811Z,87.03
2019-03-21T05:33:28.799Z,87.34
2019-03-21T05:34:28.785Z,87.76
2019-03-21T05:35:28.907Z,87.55
2019-03-21T05:36:28.749Z,86.71
2019-03-21T05:37:28.756Z,86.51
2019-03-21T05:38:28.735Z,86.76
2019-03-21T05:39:28.734Z,87.55
2019-03-21T05:40:28.767Z,87.34
2019-03-21T05:41:28.748Z,87.13
2019-03-21T05:42:28.724Z,87.03
2019-03-21T05:43:29.543Z,87.24
2019-03-21T05:44:30.802Z,87.03
2019-03-21T05:45:28.711Z,87.13
2019-03-21T05:46:28.668Z,87.24
2019-03-21T05:47:28.669Z,87.13
2019-03-21T05:48:28.636Z,87.24
2019-03-21T05:49:28.612Z,87.13
2019-03-21T05:50:28.617Z,86.71
2019-03-21T05:51:28.645Z,87.03
2019-03-21T05:52:28.648Z,87.34
2019-03-21T05:53:28.610Z,87.13
2019-03-21T05:54:28.584Z,87.13
2019-03-21T05:55:28.553Z,87.09
2019-03-21T05:56:28.561Z,86.88
2019-03-21T05:57:28.536Z,86.99
2019-03-21T05:58:28.535Z,87.20
2019-03-21T05:59:28.532Z,87.20
2019-03-21T06:00:28.518Z,87.20
2019-03-21T06:01:28.518Z,87.30
2019-03-21T06:02:28.519Z,86.88
2019-03-21T06:03:28.493Z,87.09
2019-03-21T06:04:28.514Z,87.16
2019-03-21T06:05:28.478Z,87.05
2019-03-21T06:06:28.448Z,87.09
2019-03-21T06:07:28.424Z,87.20
2019-03-21T06:08:28.440Z,87.16
2019-03-21T06:09:28.411Z,87.68
2019-03-21T06:10:28.696Z,87.16
2019-03-21T06:11:28.394Z,87.05
2019-03-21T06:12:28.377Z,87.16
2019-03-21T06:13:28.416Z,87.12
2019-03-21T06:14:28.426Z,87.12
2019-03-21T06:15:28.408Z,87.12
2019-03-21T06:16:37.231Z,87.33
2019-03-21T06:17:29.334Z,87.23
2019-03-21T06:18:28.307Z,87.01
2019-03-21T06:19:28.284Z,86.91
2019-03-21T06:20:28.296Z,87.33
2019-03-21T06:21:28.275Z,87.12
2019-03-21T06:22:28.261Z,86.98
2019-03-21T06:23:28.251Z,87.08
2019-03-21T06:24:28.244Z,87.18
2019-03-21T06:25:28.261Z,87.08
2019-03-21T06:26:28.307Z,87.18
2019-03-21T06:27:28.221Z,86.87
2019-03-21T06:28:28.173Z,86.66
2019-03-21T06:29:28.149Z,86.93
2019-03-21T06:30:28.172Z,86.93
2019-03-21T06:31:28.123Z,87.04
2019-03-21T06:32:28.120Z,87.15
2019-03-21T06:33:28.150Z,87.25
2019-03-21T06:34:28.092Z,86.83
2019-03-21T06:35:28.084Z,86.83
2019-03-21T06:36:28.070Z,86.79
2019-03-21T06:37:28.969Z,86.90
2019-03-21T06:38:28.062Z,87.00
2019-03-21T06:39:28.047Z,86.75
2019-03-21T06:40:28.022Z,87.07
2019-03-21T06:41:28.016Z,86.96
2019-03-21T06:42:28.005Z,86.71
2019-03-21T06:43:27.990Z,86.82
2019-03-21T06:44:28.054Z,86.61
2019-03-21T06:45:27.968Z,86.88
2019-03-21T06:46:27.960Z,86.77
2019-03-21T06:47:27.945Z,86.35
2019-03-21T06:48:27.945Z,84.87
2019-03-21T06:49:27.941Z,82.60
2019-03-21T06:50:27.946Z,79.69
2019-03-21T06:51:27.905Z,76.88
2019-03-21T06:52:27.890Z,74.57
2019-03-21T06:53:27.878Z,71.71
2019-03-21T06:54:27.873Z,71.51
2019-03-21T06:55:27.859Z,71.23
2019-03-21T06:56:27.890Z,70.04
2019-03-21T06:57:27.837Z,68.32
2019-03-21T06:58:27.823Z,66.93
2019-03-21T06:59:27.807Z,63.09
2019-03-21T07:00:27.798Z,61.42
2019-03-21T07:01:27.794Z,60.05
2019-03-21T07:02:27.843Z,58.46
2019-03-21T07:03:27.768Z,58.23
2019-03-21T07:04:27.755Z,56.77
2019-03-21T07:05:27.747Z,56.95
2019-03-21T07:06:27.729Z,55.21
2019-03-21T07:07:27.725Z,54.67
2019-03-21T07:08:27.758Z,55.79
2019-03-21T07:09:29.209Z,55.92
2019-03-21T07:10:27.688Z,55.41
2019-03-21T07:11:27.670Z,55.23
2019-03-21T07:12:27.659Z,55.66
2019-03-21T07:13:27.657Z,56.69
2019-03-21T07:14:27.690Z,57.00
2019-03-21T07:15:27.622Z,56.38
2019-03-21T07:16:27.656Z,58.26
2019-03-21T07:17:27.639Z,59.08
2019-03-21T07:18:27.590Z,58.46
2019-03-21T07:19:27.579Z,58.28
2019-03-21T07:20:27.638Z,58.28
2019-03-21T07:21:27.557Z,58.72
2019-03-21T07:22:27.541Z,59.44
2019-03-21T07:23:27.534Z,59.64
2019-03-21T07:24:27.531Z,59.88
2019-03-21T07:25:27.536Z,59.67
2019-03-21T07:26:27.524Z,60.08
2019-03-21T07:27:27.487Z,61.55
2019-03-21T07:28:27.492Z,62.27
2019-03-21T07:29:27.467Z,62.51
2019-03-21T07:30:27.458Z,63.43
2019-03-21T07:31:27.476Z,63.84
2019-03-21T07:32:33.368Z,64.66
2019-03-21T07:33:28.418Z,65.00
2019-03-21T07:34:27.406Z,65.00
2019-03-21T07:35:27.399Z,64.93
2019-03-21T07:36:27.388Z,64.72
2019-03-21T07:37:27.406Z,64.62
2019-03-21T07:38:27.391Z,65.16
2019-03-21T07:39:28.755Z,65.68
2019-03-21T07:40:27.337Z,66.40
2019-03-21T07:41:27.323Z,66.30
2019-03-21T07:42:27.313Z,66.22
2019-03-21T07:43:27.322Z,63.45
2019-03-21T07:44:27.305Z,62.59
2019-03-21T07:45:27.271Z,63.21
2019-03-21T07:46:27.266Z,63.00
2019-03-21T07:47:27.245Z,61.35
2019-03-21T07:48:27.253Z,61.77
2019-03-21T07:49:27.254Z,62.31
2019-03-21T07:50:27.229Z,63.13
2019-03-21T07:51:27.210Z,62.49
2019-03-21T07:52:27.201Z,61.66
2019-03-21T07:53:27.183Z,60.74
2019-03-21T07:54:27.164Z,61.05
2019-03-21T07:55:27.229Z,60.12
2019-03-21T07:56:27.162Z,60.02
2019-03-21T07:57:27.144Z,61.56
2019-03-21T07:58:27.135Z,60.61
2019-03-21T07:59:27.119Z,60.19
2019-03-21T08:00:27.097Z,60.30
2019-03-21T08:01:27.141Z,61.02
2019-03-21T08:02:27.080Z,61.33
2019-03-21T08:03:27.069Z,59.78
2019-03-21T08:04:27.062Z,60.50
2019-03-21T08:05:27.043Z,61.33
2019-03-21T08:06:27.035Z,62.15
2019-03-21T08:07:27.966Z,61.84
2019-03-21T08:08:27.025Z,62.25
2019-03-21T08:09:27.018Z,60.78
2019-03-21T08:10:26.985Z,61.43
2019-03-21T08:11:26.981Z,61.74
2019-03-21T08:12:26.965Z,62.15
2019-03-21T08:13:27.032Z,62.15
2019-03-21T08:14:26.948Z,62.15
2019-03-21T08:15:26.934Z,62.25
2019-03-21T08:16:26.919Z,62.33
2019-03-21T08:17:26.912Z,63.05
2019-03-21T08:18:26.896Z,63.15
2019-03-21T08:19:26.991Z,63.35
2019-03-21T08:20:26.872Z,62.92
2019-03-21T08:21:26.859Z,63.25
2019-03-21T08:22:26.846Z,63.12
2019-03-21T08:23:26.840Z,62.60
2019-03-21T08:24:26.827Z,63.53
2019-03-21T08:25:26.887Z,63.02
2019-03-21T08:26:26.822Z,62.09
2019-03-21T08:27:27.561Z,61.17
2019-03-21T08:28:26.790Z,62.92
2019-03-21T08:29:26.775Z,62.92
2019-03-21T08:30:26.754Z,62.51
2019-03-21T08:31:26.815Z,62.40
2019-03-21T08:32:26.747Z,61.68
2019-03-21T08:33:26.732Z,63.05
2019-03-21T08:34:26.726Z,62.60
2019-03-21T08:35:26.698Z,62.51
2019-03-21T08:36:26.687Z,63.32
2019-03-21T08:37:26.754Z,64.25
2019-03-21T08:38:26.663Z,63.22
2019-03-21T08:39:26.657Z,63.64
2019-03-21T08:40:26.652Z,62.71
2019-03-21T08:41:26.637Z,62.37
2019-03-21T08:42:26.620Z,62.40
2019-03-21T08:43:26.670Z,61.65
2019-03-21T08:44:26.611Z,62.99
2019-03-21T08:45:26.587Z,62.48
2019-03-21T08:46:26.583Z,61.35
2019-03-21T08:47:26.558Z,63.50
2019-03-21T08:48:26.553Z,63.12
2019-03-21T08:49:26.580Z,63.09
2019-03-21T08:50:26.525Z,63.50
2019-03-21T08:51:26.512Z,62.99
2019-03-21T08:52:26.501Z,63.91
2019-03-21T08:53:26.488Z,63.60
2019-03-21T08:54:26.504Z,64.12
2019-03-21T08:55:26.491Z,63.91
2019-03-21T08:56:26.458Z,63.91
2019-03-21T08:57:26.441Z,64.94
2019-03-21T08:58:27.065Z,64.19
2019-03-21T08:59:26.428Z,62.06
2019-03-21T09:00:34.040Z,63.09
2019-03-21T09:01:27.401Z,64.19
2019-03-21T09:02:26.389Z,63.89
2019-03-21T09:03:26.385Z,64.09
2019-03-21T09:04:26.368Z,63.89
2019-03-21T09:05:26.362Z,63.57
2019-03-21T09:06:26.384Z,64.81
2019-03-21T09:07:26.329Z,64.19
2019-03-21T09:08:26.318Z,61.93
2019-03-21T09:09:26.307Z,61.90
2019-03-21T09:10:26.295Z,62.93
2019-03-21T09:11:26.288Z,63.75
2019-03-21T09:12:26.301Z,64.06
2019-03-21T09:13:26.255Z,63.10
2019-03-21T09:14:27.053Z,63.10
2019-03-21T09:15:26.237Z,63.24
2019-03-21T09:16:26.230Z,62.90
2019-03-21T09:17:26.240Z,62.39
2019-03-21T09:18:26.268Z,61.87
2019-03-21T09:19:26.191Z,62.59
2019-03-21T09:20:26.180Z,61.87
2019-03-21T09:21:26.168Z,60.75
2019-03-21T09:22:27.510Z,60.33
2019-03-21T09:23:26.168Z,60.13
2019-03-21T09:24:26.186Z,59.72
2019-03-21T09:25:26.123Z,60.23
2019-03-21T09:26:26.110Z,61.13
2019-03-21T09:27:26.102Z,62.46
2019-03-21T09:28:26.089Z,61.64
2019-03-21T09:29:26.097Z,61.85
2019-03-21T09:30:26.098Z,60.28
2019-03-21T09:31:26.062Z,60.17
2019-03-21T09:32:26.101Z,60.79
2019-03-21T09:33:26.044Z,62.12
2019-03-21T09:34:26.022Z,60.38
2019-03-21T09:35:26.050Z,61.82
2019-03-21T09:36:26.025Z,61.71
2019-03-21T09:37:25.988Z,59.87
2019-03-21T09:38:25.983Z,61.89
2019-03-21T09:39:25.967Z,60.58
2019-03-21T09:40:25.956Z,60.35
2019-03-21T09:41:25.975Z,59.64
2019-03-21T09:42:25.964Z,59.84
2019-03-21T09:43:25.921Z,59.74
2019-03-21T09:44:25.919Z,59.53
2019-03-21T09:45:25.897Z,59.43
2019-03-21T09:46:25.892Z,59.74
2019-03-21T09:47:25.896Z,60.94
2019-03-21T09:48:25.901Z,60.53
2019-03-21T09:49:25.858Z,60.53
2019-03-21T09:50:25.852Z,60.35
2019-03-21T09:51:30.869Z,60.33
2019-03-21T09:52:26.827Z,57.87
2019-03-21T09:53:25.837Z,58.58
2019-03-21T09:54:25.816Z,59.30
2019-03-21T09:55:25.796Z,61.04
2019-03-21T09:56:25.778Z,59.30
2019-03-21T09:57:25.774Z,59.50
2019-03-21T09:58:25.753Z,59.27
2019-03-21T09:59:25.831Z,60.30
2019-03-21T10:00:25.741Z,60.19
2019-03-21T10:01:25.723Z,58.63
2019-03-21T10:02:25.716Z,58.63
2019-03-21T10:03:25.702Z,57.40
2019-03-21T10:04:25.689Z,58.33
2019-03-21T10:05:25.723Z,57.92
2019-03-21T10:06:25.665Z,57.51
2019-03-21T10:07:25.663Z,58.84
2019-03-21T10:08:25.645Z,58.22
2019-03-21T10:09:25.637Z,58.43
2019-03-21T10:10:26.559Z,58.94
2019-03-21T10:11:25.633Z,59.53
2019-03-21T10:12:25.598Z,59.96
2019-03-21T10:13:25.598Z,58.63
2019-03-21T10:14:25.577Z,57.61
2019-03-21T10:15:25.567Z,57.92
2019-03-21T10:16:25.575Z,58.73
2019-03-21T10:17:25.591Z,57.92
2019-03-21T10:18:25.534Z,59.04
2019-03-21T10:19:25.521Z,58.40
2019-03-21T10:20:25.518Z,57.81
2019-03-21T10:21:25.501Z,59.22
2019-03-21T10:22:25.556Z,57.99
2019-03-21T10:23:25.494Z,57.48
2019-03-21T10:24:25.473Z,59.63
2019-03-21T10:25:26.897Z,59.01
2019-03-21T10:26:25.448Z,58.09
2019-03-21T10:27:25.434Z,61.13
2019-03-21T10:28:25.431Z,61.44
2019-03-21T10:29:25.460Z,62.05
2019-03-21T10:30:25.403Z,61.03
2019-03-21T10:31:25.390Z,62.66
2019-03-21T10:32:25.387Z,62.16
2019-03-21T10:33:25.364Z,60.83
2019-03-21T10:34:25.361Z,59.30
2019-03-21T10:35:25.390Z,61.44
2019-03-21T10:36:25.341Z,61.13
2019-03-21T10:37:25.325Z,62.05
2019-03-21T10:38:25.341Z,62.87
2019-03-21T10:39:25.292Z,63.25
2019-03-21T10:40:25.281Z,57.73
2019-03-21T10:41:25.296Z,59.27
2019-03-21T10:42:25.263Z,61.31
2019-03-21T10:43:25.269Z,58.04
2019-03-21T10:44:25.243Z,59.67
2019-03-21T10:45:25.226Z,58.04
2019-03-21T10:46:25.214Z,58.32
2019-03-21T10:47:25.227Z,58.62
2019-03-21T10:48:25.193Z,60.05
2019-03-21T10:49:25.190Z,58.01
2019-03-21T10:50:25.169Z,56.79
2019-03-21T10:51:25.152Z,57.09
2019-03-21T10:52:25.143Z,57.40
2019-03-21T10:53:25.161Z,57.40
2019-03-21T10:54:25.123Z,57.70
2019-03-21T10:55:25.111Z,57.91
2019-03-21T10:56:25.108Z,59.23
2019-03-21T10:57:25.091Z,59.23
2019-03-21T10:58:25.073Z,59.00
2019-03-21T10:59:25.069Z,56.45
2019-03-21T11:00:25.049Z,58.62
2019-03-21T11:01:25.045Z,56.58
2019-03-21T11:02:25.036Z,58.19
2019-03-21T11:03:25.017Z,60.64
2019-03-21T11:04:25.020Z,57.75
2019-03-21T11:05:24.995Z,60.82
2019-03-21T11:06:25.028Z,56.43
2019-03-21T11:07:24.972Z,56.23
2019-03-21T11:08:25.029Z,56.43
2019-03-21T11:09:24.960Z,57.68
2019-03-21T11:10:24.976Z,59.80
2019-03-21T11:11:24.919Z,60.00
2019-03-21T11:12:24.907Z,58.14
2019-03-21T11:13:24.897Z,58.64
2019-03-21T11:14:24.895Z,57.29
2019-03-21T11:15:24.883Z,56.68
2019-03-21T11:16:24.884Z,57.80
2019-03-21T11:17:24.851Z,56.45
2019-03-21T11:18:35.497Z,56.45
2019-03-21T11:19:25.839Z,56.45
2019-03-21T11:20:24.809Z,57.67
2019-03-21T11:21:24.807Z,58.59
2019-03-21T11:22:24.820Z,61.21
2019-03-21T11:23:24.779Z,60.39
2019-03-21T11:24:24.768Z,60.37
2019-03-21T11:25:24.759Z,58.30
2019-03-21T11:26:24.745Z,56.77
2019-03-21T11:27:24.730Z,55.94
2019-03-21T11:28:24.777Z,56.24
2019-03-21T11:29:24.719Z,57.67
2019-03-21T11:30:24.697Z,57.41
2019-03-21T11:31:24.684Z,56.09
2019-03-21T11:32:24.678Z,55.66
2019-03-21T11:33:24.671Z,54.03
2019-03-21T11:34:24.687Z,53.93
2019-03-21T11:35:24.658Z,54.13
2019-03-21T11:36:24.630Z,54.33
2019-03-21T11:37:24.625Z,54.77
2019-03-21T11:38:24.609Z,55.66
2019-03-21T11:39:24.596Z,52.94
2019-03-21T11:40:24.605Z,54.77
2019-03-21T11:41:24.589Z,53.88
2019-03-21T11:42:26.568Z,53.98
2019-03-21T11:43:24.554Z,53.57
2019-03-21T11:44:24.544Z,53.09
2019-03-21T11:45:24.600Z,54.72
2019-03-21T11:46:24.565Z,55.33
2019-03-21T11:47:24.510Z,56.14
2019-03-21T11:48:24.501Z,55.22
2019-03-21T11:49:24.505Z,56.12
2019-03-21T11:50:24.486Z,57.13
2019-03-21T11:51:25.092Z,56.21
2019-03-21T11:52:24.473Z,54.90
2019-03-21T11:53:24.448Z,56.09
2019-03-21T11:54:24.425Z,56.29
2019-03-21T11:55:24.417Z,56.49
2019-03-21T11:56:24.435Z,53.72
2019-03-21T11:57:24.395Z,54.61
2019-03-21T11:58:24.412Z,55.53
2019-03-21T11:59:24.371Z,52.69
2019-03-21T12:00:24.358Z,54.21
2019-03-21T12:01:24.353Z,52.91
2019-03-21T12:02:27.312Z,53.72
2019-03-21T12:03:24.563Z,53.75
2019-03-21T12:04:24.355Z,53.24
2019-03-21T12:05:24.300Z,53.88
2019-03-21T12:06:24.295Z,56.19
2019-03-21T12:07:24.289Z,55.18
2019-03-21T12:08:24.272Z,53.75
2019-03-21T12:09:24.260Z,52.84
2019-03-21T12:10:24.258Z,53.55
2019-03-21T12:11:24.241Z,52.84
2019-03-21T12:12:24.225Z,52.84
2019-03-21T12:13:24.210Z,56.19
2019-03-21T12:14:24.203Z,56.09
2019-03-21T12:15:24.218Z,57.59
2019-03-21T12:16:24.175Z,55.93
2019-03-21T12:17:24.167Z,55.50
2019-03-21T12:18:24.170Z,55.20
2019-03-21T12:19:24.149Z,53.47
2019-03-21T12:20:24.137Z,52.64
2019-03-21T12:21:24.167Z,52.05
2019-03-21T12:22:29.890Z,51.65
2019-03-21T12:23:24.100Z,51.98
2019-03-21T12:24:25.073Z,52.79
2019-03-21T12:25:24.079Z,53.02
2019-03-21T12:26:24.072Z,53.24
2019-03-21T12:27:24.081Z,52.84
2019-03-21T12:28:24.048Z,53.12
2019-03-21T12:29:24.039Z,53.93
2019-03-21T12:30:24.022Z,53.12
2019-03-21T12:31:24.008Z,52.99
2019-03-21T12:32:23.991Z,53.09
2019-03-21T12:33:24.002Z,52.18
2019-03-21T12:34:23.992Z,53.39
2019-03-21T12:35:23.958Z,54.31
2019-03-21T12:36:23.947Z,53.60
2019-03-21T12:37:23.933Z,53.50
2019-03-21T12:38:23.930Z,56.11
2019-03-21T12:39:23.966Z,53.27
2019-03-21T12:40:23.910Z,52.64
2019-03-21T12:41:23.890Z,51.93
2019-03-21T12:42:23.883Z,52.00
2019-03-21T12:43:23.868Z,52.71
2019-03-21T12:44:23.864Z,54.24
2019-03-21T12:45:23.863Z,52.61
2019-03-21T12:46:23.842Z,50.89
2019-03-21T12:47:31.052Z,51.82
2019-03-21T12:48:24.811Z,50.71
2019-03-21T12:49:23.842Z,51.72
2019-03-21T12:50:23.809Z,50.71
2019-03-21T12:51:23.821Z,52.73
2019-03-21T12:52:23.782Z,52.31